Time;durP1;ratioP1;P1;durP2;ratioP2;P2;SDS_P1;SDS_P2;PMS_P1;PMS_P2;Temp;Humidity;BMP_temperature;BMP_pressure;BME280_temperature;BME280_humidity;BME280_pressure;Samples;Min_cycle;Max_cycle;Signal;HPM_P1;HPM_P2
2023/10/05 00:02:20;;;;;;;9.77;4.40;;;11.70;19.10;;;;;;4948287;28;20482;-65
2023/10/05 00:04:47;;;;;;;10.73;4.77;;;11.70;18.90;;;;;;4949716;28;20565;-65
2023/10/05 00:07:19;;;;;;;11.73;4.20;;;11.70;18.90;;;;;;4950594;29;20956;-65
2023/10/05 00:09:46;;;;;;;18.17;4.83;;;11.60;19.30;;;;;;4949474;28;20529;-65
2023/10/05 00:12:20;;;;;;;9.27;5.17;;;11.50;19.70;;;;;;4950693;29;20470;-65
2023/10/05 00:14:55;;;;;;;9.13;4.30;;;11.50;19.70;;;;;;4949437;28;20549;-65
2023/10/05 00:17:22;;;;;;;10.43;4.77;;;11.40;19.90;;;;;;4949879;28;20476;-65
2023/10/05 00:19:49;;;;;;;10.37;4.37;;;11.40;19.80;;;;;;4948396;29;20459;-65
2023/10/05 00:22:16;;;;;;;8.00;4.33;;;11.40;20.30;;;;;;4949962;29;20477;-65
2023/10/05 00:24:45;;;;;;;8.47;4.07;;;11.40;20.00;;;;;;4950002;28;20489;-65
2023/10/05 00:27:14;;;;;;;6.40;3.30;;;11.40;20.00;;;;;;4949835;29;20482;-65
2023/10/05 00:29:43;;;;;;;7.87;4.30;;;11.40;20.00;;;;;;4949613;28;20462;-65
2023/10/05 00:32:22;;;;;;;11.13;4.63;;;11.30;20.40;;;;;;4949660;28;20486;-65
2023/10/05 00:34:52;;;;;;;11.53;4.37;;;11.30;20.50;;;;;;4949511;29;20545;-65
2023/10/05 00:37:19;;;;;;;9.07;4.17;;;11.30;20.70;;;;;;4949906;28;20478;-65
2023/10/05 00:39:48;;;;;;;12.63;4.10;;;11.30;20.60;;;;;;4950112;28;20470;-65
2023/10/05 00:42:16;;;;;;;8.03;3.93;;;11.20;20.70;;;;;;4947878;28;20561;-65
2023/10/05 00:44:43;;;;;;;6.00;3.40;;;11.20;21.10;;;;;;4950373;28;20890;-65
2023/10/05 00:47:13;;;;;;;7.50;3.40;;;11.10;21.20;;;;;;4946773;28;21070;-65
2023/10/05 00:49:52;;;;;;;9.53;3.50;;;11.00;21.20;;;;;;4949349;29;20498;-65
2023/10/05 00:52:24;;;;;;;7.80;3.80;;;11.00;21.20;;;;;;4949633;29;20499;-65
2023/10/05 00:54:54;;;;;;;12.00;4.07;;;11.00;21.10;;;;;;4949958;29;21295;-64
2023/10/05 00:57:23;;;;;;;8.40;4.43;;;11.00;21.00;;;;;;4947693;29;20565;-64
2023/10/05 00:59:58;;;;;;;7.77;3.37;;;11.00;20.70;;;;;;4949810;29;20998;-65
2023/10/05 01:02:30;;;;;;;9.53;4.60;;;11.00;20.70;;;;;;4949498;28;20517;-65
2023/10/05 01:05:00;;;;;;;12.30;3.80;;;11.00;20.50;;;;;;4947784;29;20479;-65
2023/10/05 01:07:43;;;;;;;8.40;3.57;;;11.00;21.10;;;;;;4949656;29;20975;-65
2023/10/05 01:10:28;;;;;;;10.37;3.63;;;11.00;21.00;;;;;;4947876;29;20462;-65
2023/10/05 01:12:56;;;;;;;13.20;4.30;;;11.00;21.10;;;;;;4948037;28;20467;-65
2023/10/05 01:15:30;;;;;;;8.47;3.70;;;10.90;21.40;;;;;;4945942;29;20498;-65
2023/10/05 01:17:59;;;;;;;8.67;3.57;;;10.90;21.70;;;;;;4945127;28;20458;-65
2023/10/05 01:20:29;;;;;;;8.43;3.90;;;10.90;21.90;;;;;;4947575;29;20501;-65
2023/10/05 01:22:57;;;;;;;8.10;3.67;;;10.90;21.80;;;;;;4947839;29;20619;-65
2023/10/05 01:25:27;;;;;;;9.53;4.50;;;10.90;22.10;;;;;;4948030;29;21021;-65
2023/10/05 01:27:54;;;;;;;8.80;3.70;;;10.90;22.10;;;;;;4946786;29;20470;-65
2023/10/05 01:30:22;;;;;;;8.10;3.33;;;10.80;21.70;;;;;;4946777;28;20498;-65
2023/10/05 01:32:49;;;;;;;9.43;3.80;;;10.90;21.50;;;;;;4944507;29;20466;-65
2023/10/05 01:35:22;;;;;;;7.73;3.53;;;10.90;21.70;;;;;;4947126;29;20494;-65
2023/10/05 01:37:52;;;;;;;12.13;4.27;;;10.90;21.70;;;;;;4946462;29;20574;-65
2023/10/05 01:40:25;;;;;;;8.67;3.80;;;10.90;21.50;;;;;;4946027;29;20466;-65
2023/10/05 01:42:54;;;;;;;9.73;3.70;;;10.90;21.60;;;;;;4947082;29;20508;-64
2023/10/05 01:45:29;;;;;;;9.50;3.47;;;10.90;22.40;;;;;;4946243;29;21087;-64
2023/10/05 01:47:56;;;;;;;7.67;3.70;;;10.90;21.70;;;;;;4946960;29;20820;-64
2023/10/05 01:50:24;;;;;;;11.53;3.83;;;10.90;21.30;;;;;;4946256;29;20557;-64
2023/10/05 01:52:56;;;;;;;9.53;3.53;;;10.90;21.40;;;;;;4948412;29;20466;-65
2023/10/05 01:55:24;;;;;;;6.23;2.80;;;10.90;21.40;;;;;;4949877;29;20486;-65
2023/10/05 01:57:54;;;;;;;7.33;3.97;;;10.90;21.60;;;;;;4949024;29;20463;-65
2023/10/05 02:00:23;;;;;;;9.67;4.27;;;10.90;21.30;;;;;;4948470;29;20482;-64
2023/10/05 02:02:50;;;;;;;6.83;3.87;;;10.90;21.40;;;;;;4948612;29;20897;-64
2023/10/05 02:05:19;;;;;;;14.30;4.13;;;10.90;21.70;;;;;;4948474;28;20501;-65
2023/10/05 02:07:47;;;;;;;6.07;3.20;;;10.90;21.60;;;;;;4948437;29;20545;-65
2023/10/05 02:10:19;;;;;;;10.87;3.90;;;10.90;21.90;;;;;;4947409;28;20922;-65
2023/10/05 02:12:48;;;;;;;9.13;3.63;;;10.90;21.80;;;;;;4948951;29;20467;-65
2023/10/05 02:15:17;;;;;;;10.10;3.20;;;10.90;21.50;;;;;;4947055;28;21150;-65
2023/10/05 02:17:46;;;;;;;7.60;3.00;;;10.90;21.40;;;;;;4948389;28;20513;-65
2023/10/05 02:20:27;;;;;;;8.87;3.47;;;10.90;21.50;;;;;;4949072;29;20973;-65
2023/10/05 02:23:15;;;;;;;8.10;3.33;;;10.90;21.50;;;;;;4932431;29;20803;-65
2023/10/05 02:25:43;;;;;;;9.60;3.97;;;10.90;21.60;;;;;;4946301;28;20489;-65
2023/10/05 02:28:09;;;;;;;14.00;4.47;;;10.90;21.60;;;;;;4948816;29;20459;-65
2023/10/05 02:30:37;;;;;;;8.90;4.30;;;10.80;21.30;;;;;;4948647;28;21151;-65
2023/10/05 02:33:09;;;;;;;9.00;3.83;;;10.80;21.40;;;;;;4947992;29;20493;-65
2023/10/05 02:35:38;;;;;;;10.50;4.90;;;10.80;21.90;;;;;;4947848;29;20478;-65
2023/10/05 02:38:06;;;;;;;8.40;4.00;;;10.80;21.80;;;;;;4947077;29;20472;-65
2023/10/05 02:40:35;;;;;;;7.80;3.70;;;10.80;21.70;;;;;;4949171;29;20466;-65
2023/10/05 02:43:07;;;;;;;13.03;4.70;;;10.80;21.70;;;;;;4947230;29;20473;-65
2023/10/05 02:45:36;;;;;;;7.97;3.60;;;10.80;21.60;;;;;;4946093;29;20486;-65
2023/10/05 02:48:05;;;;;;;7.60;4.10;;;10.80;21.40;;;;;;4948943;29;20828;-65
2023/10/05 02:50:37;;;;;;;7.17;3.97;;;10.80;21.60;;;;;;4947280;28;21034;-65
2023/10/05 02:53:06;;;;;;;8.20;3.60;;;10.80;21.70;;;;;;4948574;28;20463;-65
2023/10/05 02:55:36;;;;;;;7.80;4.00;;;10.80;22.10;;;;;;4952148;29;20486;-66
2023/10/05 02:58:04;;;;;;;7.80;3.83;;;10.80;21.90;;;;;;4951741;29;20494;-66
2023/10/05 03:00:33;;;;;;;10.00;5.60;;;10.70;22.20;;;;;;4950474;28;20505;-64
2023/10/05 03:03:02;;;;;;;9.00;3.23;;;10.70;22.50;;;;;;4951551;29;20462;-64
2023/10/05 03:05:32;;;;;;;7.20;3.80;;;10.70;22.50;;;;;;4952103;29;20598;-64
2023/10/05 03:07:59;;;;;;;6.50;3.27;;;10.70;22.60;;;;;;4951951;28;20542;-64
2023/10/05 03:10:27;;;;;;;7.70;3.67;;;10.70;22.90;;;;;;4950813;28;20475;-64
2023/10/05 03:12:54;;;;;;;7.40;4.03;;;10.60;22.70;;;;;;4950364;29;20537;-64
2023/10/05 03:15:27;;;;;;;7.60;3.87;;;10.70;22.50;;;;;;4951105;29;20580;-65
2023/10/05 03:17:56;;;;;;;8.57;4.10;;;10.70;22.40;;;;;;4952142;29;20454;-64
2023/10/05 03:20:24;;;;;;;10.00;4.40;;;10.70;22.20;;;;;;4950442;29;20466;-64
2023/10/05 03:22:55;;;;;;;9.97;4.20;;;10.70;22.50;;;;;;4952047;29;20474;-64
2023/10/05 03:25:23;;;;;;;10.27;4.13;;;10.70;22.40;;;;;;4949688;29;21086;-65
2023/10/05 03:27:49;;;;;;;7.07;3.50;;;10.60;22.30;;;;;;4949591;29;20486;-64
2023/10/05 03:30:16;;;;;;;8.90;5.90;;;10.70;22.30;;;;;;4950398;28;20466;-64
2023/10/05 03:32:48;;;;;;;8.47;3.97;;;10.60;22.10;;;;;;4946741;29;20470;-65
2023/10/05 03:35:22;;;;;;;9.13;3.20;;;10.60;22.10;;;;;;4945631;28;20509;-66
2023/10/05 03:37:49;;;;;;;7.97;4.23;;;10.60;22.30;;;;;;4947797;29;20461;-66
2023/10/05 03:40:22;;;;;;;10.27;3.37;;;10.50;21.90;;;;;;4950187;28;20466;-65
2023/10/05 03:42:56;;;;;;;11.13;3.70;;;10.50;21.90;;;;;;4948353;29;21037;-64
2023/10/05 03:45:23;;;;;;;13.10;3.60;;;10.50;22.20;;;;;;4945772;28;20505;-63
2023/10/05 03:47:50;;;;;;;8.03;3.70;;;10.40;22.20;;;;;;4946989;28;20474;-62
2023/10/05 03:50:18;;;;;;;9.40;4.80;;;10.40;22.10;;;;;;4948195;28;20485;-66
2023/10/05 03:52:45;;;;;;;6.80;3.30;;;10.40;22.20;;;;;;4946131;28;21029;-64
2023/10/05 03:55:12;;;;;;;7.40;3.10;;;10.40;22.30;;;;;;4946419;29;20581;-65
2023/10/05 03:57:41;;;;;;;10.23;4.30;;;10.30;22.20;;;;;;4948573;28;20485;-64
2023/10/05 04:00:22;;;;;;;8.90;3.53;;;10.30;22.40;;;;;;4949187;29;20474;-65
2023/10/05 04:02:49;;;;;;;6.93;3.70;;;10.30;22.30;;;;;;4948645;29;20482;-64
2023/10/05 04:05:18;;;;;;;9.37;3.73;;;10.30;22.70;;;;;;4947787;28;20488;-65
2023/10/05 04:07:45;;;;;;;9.40;4.03;;;10.30;22.80;;;;;;4948954;29;20983;-64
2023/10/05 04:10:15;;;;;;;7.50;3.77;;;10.30;23.20;;;;;;4947316;28;21990;-64
2023/10/05 04:12:43;;;;;;;7.00;4.13;;;10.30;23.00;;;;;;4950741;29;20458;-64
2023/10/05 04:15:13;;;;;;;8.40;4.30;;;10.30;23.20;;;;;;4950509;29;20491;-66
2023/10/05 04:17:40;;;;;;;6.77;3.53;;;10.30;23.60;;;;;;5013809;23;20504;-62
2023/10/05 04:20:09;;;;;;;6.10;3.50;;;10.20;23.40;;;;;;4969167;28;20512;-63
2023/10/05 04:22:38;;;;;;;11.20;3.40;;;10.20;23.30;;;;;;4971689;28;20470;-63
2023/10/05 04:25:05;;;;;;;9.70;3.87;;;10.30;23.30;;;;;;4966458;28;20497;-62
2023/10/05 04:27:32;;;;;;;7.03;3.57;;;10.30;22.90;;;;;;4968615;28;20496;-62
2023/10/05 04:30:03;;;;;;;7.53;3.70;;;10.40;22.60;;;;;;4971024;28;21138;-62
2023/10/05 04:32:29;;;;;;;7.13;3.17;;;10.30;22.50;;;;;;4968772;28;20482;-62
2023/10/05 04:34:56;;;;;;;8.17;3.30;;;10.40;22.60;;;;;;4968026;28;20496;-62
2023/10/05 04:37:25;;;;;;;9.90;4.10;;;10.40;22.50;;;;;;4967969;28;20505;-62
2023/10/05 04:39:52;;;;;;;11.03;4.30;;;10.40;23.00;;;;;;4971017;28;20468;-63
2023/10/05 04:42:19;;;;;;;9.60;3.80;;;10.40;23.00;;;;;;4964765;28;20480;-62
2023/10/05 04:44:46;;;;;;;13.73;4.27;;;10.40;22.90;;;;;;4966765;28;20878;-62
2023/10/05 04:47:14;;;;;;;7.17;4.00;;;10.40;23.30;;;;;;4964934;28;20485;-62
2023/10/05 04:49:44;;;;;;;8.60;3.67;;;10.30;23.70;;;;;;4961850;28;20533;-63
2023/10/05 04:52:19;;;;;;;8.90;3.90;;;10.40;23.70;;;;;;4967691;28;20469;-62
2023/10/05 04:54:45;;;;;;;11.57;3.80;;;10.30;24.00;;;;;;4969869;28;20567;-63
2023/10/05 04:57:23;;;;;;;9.47;4.03;;;10.40;24.00;;;;;;4972089;28;20586;-63
2023/10/05 04:59:58;;;;;;;11.07;4.43;;;10.30;23.80;;;;;;4974515;28;21006;-62
2023/10/05 05:02:58;;;;;;;8.30;3.30;;;10.40;23.60;;;;;;4976682;28;20564;-62
2023/10/05 05:05:34;;;;;;;12.10;3.73;;;10.40;23.60;;;;;;4969863;28;21387;-62
2023/10/05 05:08:02;;;;;;;10.23;4.40;;;10.40;23.60;;;;;;4965763;28;20492;-63
2023/10/05 05:10:28;;;;;;;9.37;4.53;;;10.40;23.40;;;;;;4968665;28;20558;-62
2023/10/05 05:12:57;;;;;;;7.43;3.60;;;10.40;23.60;;;;;;4969305;28;20955;-63
2023/10/05 05:15:23;;;;;;;9.30;4.30;;;10.30;23.70;;;;;;4969766;28;20476;-63
2023/10/05 05:17:51;;;;;;;8.50;4.73;;;10.30;23.90;;;;;;4969079;28;20488;-63
2023/10/05 05:20:21;;;;;;;7.17;3.93;;;10.30;23.80;;;;;;4969658;28;20464;-62
2023/10/05 05:22:48;;;;;;;9.20;4.47;;;10.30;23.70;;;;;;4966188;28;20461;-62
2023/10/05 05:25:17;;;;;;;7.70;4.43;;;10.30;23.90;;;;;;4968424;28;20477;-63
2023/10/05 05:27:45;;;;;;;8.13;4.00;;;10.30;24.20;;;;;;4968374;28;21104;-62
2023/10/05 05:30:24;;;;;;;7.57;4.67;;;10.20;24.10;;;;;;4967217;28;20529;-63
2023/10/05 05:32:54;;;;;;;13.57;5.10;;;10.30;24.00;;;;;;4964969;28;20490;-62
2023/10/05 05:35:21;;;;;;;8.13;4.83;;;10.30;24.10;;;;;;4968029;28;20513;-63
2023/10/05 05:37:47;;;;;;;11.07;4.77;;;10.30;24.10;;;;;;4968121;28;20462;-63
2023/10/05 05:40:14;;;;;;;10.00;4.70;;;10.40;24.10;;;;;;4965600;28;20464;-62
2023/10/05 05:42:44;;;;;;;8.80;4.43;;;10.40;24.10;;;;;;4965215;28;20476;-63
2023/10/05 05:45:16;;;;;;;9.57;4.50;;;10.40;24.60;;;;;;4964567;28;20477;-63
2023/10/05 05:47:43;;;;;;;10.20;5.23;;;10.50;24.70;;;;;;4969633;28;20487;-62
2023/10/05 05:50:17;;;;;;;13.40;5.07;;;10.70;24.40;;;;;;4971892;28;20488;-62
2023/10/05 05:52:46;;;;;;;9.30;6.10;;;10.70;24.90;;;;;;4969335;28;20465;-62
2023/10/05 05:55:13;;;;;;;13.23;7.67;;;10.80;24.70;;;;;;4975130;28;20532;-63
2023/10/05 05:57:40;;;;;;;10.20;6.77;;;10.90;24.60;;;;;;4970336;28;20470;-62
2023/10/05 06:00:12;;;;;;;12.87;6.80;;;10.90;24.70;;;;;;4965354;28;20454;-62
2023/10/05 06:02:40;;;;;;;15.53;9.03;;;11.00;24.50;;;;;;4968024;28;20554;-62
2023/10/05 06:05:08;;;;;;;11.37;7.70;;;11.20;24.30;;;;;;4967534;28;20505;-63
2023/10/05 06:07:38;;;;;;;12.13;8.17;;;11.50;23.80;;;;;;4969096;28;20853;-63
2023/10/05 06:10:12;;;;;;;14.53;9.10;;;11.60;23.30;;;;;;4968007;28;20886;-63
2023/10/05 06:12:39;;;;;;;12.83;8.30;;;11.60;23.00;;;;;;4953251;28;20485;-63
2023/10/05 06:15:07;;;;;;;10.77;7.27;;;11.60;23.00;;;;;;4968454;28;20492;-64
2023/10/05 06:17:35;;;;;;;12.90;7.60;;;11.60;23.00;;;;;;4971349;28;20458;-62
2023/10/05 06:20:05;;;;;;;9.70;6.27;;;11.60;22.80;;;;;;4970162;28;20489;-63
2023/10/05 06:22:32;;;;;;;12.00;7.60;;;11.70;22.70;;;;;;4969222;28;20457;-63
2023/10/05 06:25:00;;;;;;;12.10;6.90;;;11.70;22.50;;;;;;4968536;28;20485;-63
2023/10/05 06:27:26;;;;;;;11.80;6.80;;;11.70;22.60;;;;;;4969785;28;20477;-63
2023/10/05 06:29:53;;;;;;;11.50;7.13;;;11.80;22.50;;;;;;4974082;28;20461;-63
2023/10/05 06:32:20;;;;;;;10.93;7.20;;;11.80;22.40;;;;;;4973473;28;20564;-63
2023/10/05 06:34:48;;;;;;;12.17;6.40;;;11.90;22.40;;;;;;4972697;28;20488;-63
2023/10/05 06:37:15;;;;;;;13.93;6.23;;;12.00;22.10;;;;;;4972722;28;20580;-63
2023/10/05 06:39:41;;;;;;;10.30;5.90;;;12.10;21.90;;;;;;4972979;28;20453;-63
2023/10/05 06:42:11;;;;;;;10.50;6.97;;;12.30;21.60;;;;;;4973316;28;20454;-63
2023/10/05 06:44:39;;;;;;;17.10;6.33;;;12.40;21.30;;;;;;4971583;28;20544;-62
2023/10/05 06:47:06;;;;;;;9.90;6.30;;;12.50;20.90;;;;;;4976121;28;20464;-63
2023/10/05 06:49:33;;;;;;;9.37;5.83;;;12.60;20.50;;;;;;4972273;28;20458;-63
2023/10/05 06:52:01;;;;;;;8.50;5.33;;;12.70;20.10;;;;;;4973530;28;20528;-63
2023/10/05 06:54:28;;;;;;;12.97;5.40;;;12.80;19.80;;;;;;4966531;28;20473;-63
2023/10/05 06:56:55;;;;;;;13.43;7.03;;;12.90;19.70;;;;;;4972902;28;20895;-63
2023/10/05 06:59:25;;;;;;;13.87;6.57;;;13.00;19.50;;;;;;4973285;28;20454;-63
2023/10/05 07:01:52;;;;;;;9.63;5.43;;;13.30;19.40;;;;;;4970975;28;20489;-62
2023/10/05 07:04:24;;;;;;;12.00;6.40;;;13.60;19.00;;;;;;4972092;28;20528;-62
2023/10/05 07:06:51;;;;;;;9.20;4.50;;;14.20;18.20;;;;;;4972265;28;20564;-62
2023/10/05 07:09:18;;;;;;;10.27;5.03;;;14.50;16.50;;;;;;4971865;28;20545;-63
2023/10/05 07:11:45;;;;;;;14.20;5.30;;;14.70;15.60;;;;;;4971733;28;20929;-63
2023/10/05 07:14:12;;;;;;;13.13;6.47;;;14.90;15.10;;;;;;4972809;28;20482;-63
2023/10/05 07:16:40;;;;;;;12.30;5.83;;;15.10;14.50;;;;;;4968167;28;20470;-62
2023/10/05 07:19:08;;;;;;;9.03;4.30;;;15.40;13.90;;;;;;4971922;28;20461;-63
2023/10/05 07:21:35;;;;;;;12.23;4.67;;;16.60;12.20;;;;;;4972577;28;20461;-63
2023/10/05 07:24:01;;;;;;;8.53;4.83;;;17.20;9.50;;;;;;4971987;28;20520;-64
2023/10/05 07:26:28;;;;;;;8.90;4.20;;;17.10;9.10;;;;;;4971669;28;20450;-63
2023/10/05 07:28:55;;;;;;;10.30;5.37;;;17.40;9.30;;;;;;4971704;28;20481;-63
2023/10/05 07:31:22;;;;;;;11.80;4.70;;;18.40;7.20;;;;;;4970789;28;20474;-63
2023/10/05 07:33:50;;;;;;;10.00;4.20;;;19.60;4.30;;;;;;4973703;28;20473;-63
2023/10/05 07:36:17;;;;;;;8.77;4.67;;;20.50;2.40;;;;;;4970658;28;20464;-63
2023/10/05 07:38:44;;;;;;;9.27;5.03;;;20.40;1.70;;;;;;4971279;28;21151;-63
2023/10/05 07:41:11;;;;;;;8.20;5.00;;;20.00;1.80;;;;;;4973433;28;20454;-64
2023/10/05 07:43:38;;;;;;;10.53;4.67;;;19.50;2.20;;;;;;4972853;28;20454;-63
2023/10/05 07:46:06;;;;;;;9.97;4.93;;;19.10;3.00;;;;;;4969404;28;20445;-63
2023/10/05 07:48:33;;;;;;;10.30;5.13;;;18.90;3.70;;;;;;4970013;28;20488;-63
2023/10/05 07:51:01;;;;;;;9.47;5.23;;;19.00;3.80;;;;;;4970396;28;20449;-63
2023/10/05 07:53:28;;;;;;;10.73;4.57;;;19.20;3.60;;;;;;4968913;28;20457;-64
2023/10/05 07:55:55;;;;;;;8.50;5.63;;;19.80;2.70;;;;;;4969814;28;20545;-63
2023/10/05 07:58:22;;;;;;;11.27;5.43;;;20.20;1.70;;;;;;4975078;28;20456;-63
2023/10/05 08:00:49;;;;;;;6.67;5.13;;;21.30;1.00;;;;;;4972417;28;20504;-63
2023/10/05 08:03:17;;;;;;;8.00;5.10;;;21.30;1.00;;;;;;4970845;28;20517;-63
2023/10/05 08:05:43;;;;;;;10.70;6.07;;;21.00;1.00;;;;;;4971508;28;20497;-63
2023/10/05 08:08:11;;;;;;;10.93;6.80;;;20.80;1.00;;;;;;4971471;28;20496;-63
2023/10/05 08:10:39;;;;;;;11.07;6.23;;;20.90;1.00;;;;;;4975085;28;20464;-63
2023/10/05 08:13:05;;;;;;;8.63;5.60;;;21.10;1.00;;;;;;4982019;28;20485;-63
2023/10/05 08:15:32;;;;;;;9.47;5.77;;;21.40;1.00;;;;;;4990972;28;20488;-63
2023/10/05 08:17:59;;;;;;;10.27;6.73;;;21.40;1.00;;;;;;4985780;28;20473;-62
2023/10/05 08:20:26;;;;;;;9.70;6.13;;;21.20;1.00;;;;;;4971033;28;20469;-62
2023/10/05 08:22:54;;;;;;;12.70;7.20;;;21.40;1.00;;;;;;4968382;28;20469;-63
2023/10/05 08:25:22;;;;;;;11.20;6.50;;;22.40;1.00;;;;;;4971050;28;20482;-63
2023/10/05 08:27:49;;;;;;;9.60;6.20;;;24.50;1.00;;;;;;4970843;28;20486;-63
2023/10/05 08:30:16;;;;;;;8.00;5.93;;;26.40;1.00;;;;;;4971016;28;20466;-63
2023/10/05 08:32:47;;;;;;;9.80;6.53;;;27.70;1.00;;;;;;4967145;28;20462;-63
2023/10/05 08:35:14;;;;;;;9.67;6.20;;;27.80;1.00;;;;;;4968578;28;21100;-63
2023/10/05 08:37:47;;;;;;;8.20;5.60;;;28.20;1.00;;;;;;4968029;28;20961;-63
2023/10/05 08:40:30;;;;;;;14.00;6.77;;;28.30;1.00;;;;;;4964653;28;20471;-63
2023/10/05 08:43:08;;;;;;;11.23;5.60;;;29.20;1.00;;;;;;4972340;28;20549;-63
2023/10/05 08:45:45;;;;;;;9.33;6.37;;;29.60;1.00;;;;;;4968448;28;20477;-63
2023/10/05 08:48:18;;;;;;;12.03;7.03;;;29.30;1.00;;;;;;4968715;28;20540;-63
2023/10/05 08:50:47;;;;;;;11.30;7.50;;;29.60;1.00;;;;;;4970554;28;20509;-63
2023/10/05 08:53:15;;;;;;;12.53;7.50;;;29.20;1.00;;;;;;4975906;28;20460;-63
2023/10/05 08:55:46;;;;;;;11.87;6.83;;;28.70;1.00;;;;;;4974200;28;20947;-63
2023/10/05 08:58:18;;;;;;;10.13;5.80;;;28.10;1.00;;;;;;4969554;28;20962;-63
2023/10/05 09:00:45;;;;;;;11.10;6.87;;;27.20;1.00;;;;;;4972720;28;20465;-63
2023/10/05 09:03:29;;;;;;;9.47;5.57;;;26.50;1.00;;;;;;4971600;28;20450;-63
2023/10/05 09:06:13;;;;;;;10.53;6.60;;;25.90;1.00;;;;;;4968129;28;20470;-63
2023/10/05 09:08:51;;;;;;;10.23;5.97;;;25.40;1.00;;;;;;4966894;28;20489;-63
2023/10/05 09:11:31;;;;;;;8.30;5.00;;;25.30;1.00;;;;;;4969392;28;20476;-63
2023/10/05 09:14:08;;;;;;;10.50;4.80;;;25.90;1.00;;;;;;4973500;28;20470;-63
2023/10/05 09:16:41;;;;;;;7.63;4.97;;;27.30;1.00;;;;;;4969858;28;20493;-63
2023/10/05 09:19:09;;;;;;;8.93;4.77;;;29.00;1.00;;;;;;4971341;28;20488;-63
2023/10/05 09:21:50;;;;;;;7.70;3.97;;;29.00;1.00;;;;;;4970449;28;20526;-63
2023/10/05 09:24:21;;;;;;;7.80;4.60;;;28.40;1.00;;;;;;4972118;28;20489;-63
2023/10/05 09:26:56;;;;;;;10.77;5.23;;;27.80;1.00;;;;;;4967806;28;20501;-63
2023/10/05 09:29:28;;;;;;;10.17;4.27;;;26.90;1.00;;;;;;4970122;28;20563;-62
2023/10/05 09:31:56;;;;;;;9.30;5.10;;;26.50;1.00;;;;;;4967096;28;20493;-62
2023/10/05 09:34:37;;;;;;;11.80;4.97;;;27.60;1.00;;;;;;4969045;28;20481;-63
2023/10/05 09:37:06;;;;;;;8.00;4.60;;;28.60;1.00;;;;;;4968088;28;20548;-63
2023/10/05 09:39:37;;;;;;;10.87;5.13;;;28.60;1.00;;;;;;4968703;28;20940;-63
2023/10/05 09:42:07;;;;;;;8.20;4.40;;;30.50;1.00;;;;;;4962720;28;20552;-63
2023/10/05 09:44:37;;;;;;;6.97;3.83;;;32.60;1.00;;;;;;4965445;28;20575;-63
2023/10/05 09:47:08;;;;;;;8.00;4.37;;;33.90;1.00;;;;;;4968784;28;20524;-64
2023/10/05 09:49:36;;;;;;;8.53;4.80;;;34.00;1.00;;;;;;4964940;28;20536;-64
2023/10/05 09:52:03;;;;;;;7.60;4.10;;;33.90;1.00;;;;;;4965298;28;20472;-64
2023/10/05 09:54:31;;;;;;;6.97;3.80;;;33.90;1.00;;;;;;4964514;28;20488;-65
2023/10/05 09:56:59;;;;;;;9.20;3.30;;;34.10;1.00;;;;;;4968703;28;20556;-63
2023/10/05 09:59:27;;;;;;;7.20;3.93;;;34.10;1.00;;;;;;4960358;28;20461;-63
2023/10/05 10:01:57;;;;;;;8.63;4.70;;;34.30;1.00;;;;;;4967368;28;20473;-64
2023/10/05 10:04:35;;;;;;;11.40;4.27;;;34.30;1.00;;;;;;4973251;28;20488;-63
2023/10/05 10:07:13;;;;;;;7.97;3.80;;;34.10;1.00;;;;;;4973207;28;20499;-63
2023/10/05 10:09:41;;;;;;;11.83;4.30;;;34.40;1.00;;;;;;4970845;28;20490;-63
2023/10/05 10:12:11;;;;;;;7.43;3.40;;;34.40;1.00;;;;;;4968171;28;20465;-63
2023/10/05 10:14:41;;;;;;;10.80;3.03;;;34.10;1.00;;;;;;4971995;28;20469;-63
2023/10/05 10:17:24;;;;;;;10.13;3.57;;;33.40;1.00;;;;;;4972857;23;20498;-64
2023/10/05 10:20:05;;;;;;;9.03;4.27;;;32.50;1.00;;;;;;4952776;28;20498;-64
2023/10/05 10:22:47;;;;;;;6.83;3.10;;;32.20;1.00;;;;;;4953901;28;20539;-64
2023/10/05 10:25:32;;;;;;;6.63;4.00;;;32.00;1.00;;;;;;4950790;28;20553;-64
2023/10/05 10:28:16;;;;;;;10.47;3.57;;;31.70;1.00;;;;;;4949184;28;20471;-65
2023/10/05 10:30:47;;;;;;;7.23;3.60;;;31.40;1.00;;;;;;4948170;28;20478;-65
2023/10/05 10:33:31;;;;;;;7.37;3.30;;;31.10;1.00;;;;;;4952845;28;20493;-65
2023/10/05 10:35:58;;;;;;;8.33;3.83;;;30.60;1.00;;;;;;4947264;28;20466;-65
2023/10/05 10:38:27;;;;;;;8.77;3.43;;;30.30;1.00;;;;;;4949746;28;20569;-65
2023/10/05 10:41:09;;;;;;;10.60;3.53;;;30.10;1.00;;;;;;4954005;28;20582;-65
2023/10/05 10:43:37;;;;;;;9.13;3.87;;;29.90;1.00;;;;;;4950999;28;20561;-65
2023/10/05 10:46:13;;;;;;;5.50;2.70;;;29.70;1.00;;;;;;4951985;28;20560;-65
2023/10/05 10:48:57;;;;;;;7.70;3.47;;;29.60;1.00;;;;;;4949982;28;20625;-65
2023/10/05 10:51:24;;;;;;;7.80;3.90;;;29.40;1.00;;;;;;4952697;28;20554;-66
2023/10/05 10:53:56;;;;;;;10.00;3.23;;;29.30;1.00;;;;;;4952328;28;21284;-65
2023/10/05 10:56:27;;;;;;;7.60;4.20;;;29.20;1.00;;;;;;4945235;28;21044;-66
2023/10/05 10:59:09;;;;;;;6.20;3.00;;;29.20;1.00;;;;;;4945698;28;20479;-66
2023/10/05 11:01:43;;;;;;;7.20;3.47;;;29.20;1.00;;;;;;4947519;28;20571;-65
2023/10/05 11:04:24;;;;;;;6.87;3.40;;;29.00;1.00;;;;;;4947630;28;20475;-66
2023/10/05 11:06:56;;;;;;;6.43;2.83;;;28.80;1.00;;;;;;4950427;28;21022;-66
2023/10/05 11:09:31;;;;;;;7.70;3.40;;;28.70;1.00;;;;;;4951225;28;20533;-66
2023/10/05 11:12:08;;;;;;;6.80;3.57;;;28.70;1.00;;;;;;4951264;28;20493;-66
2023/10/05 11:14:37;;;;;;;5.50;2.57;;;28.70;1.00;;;;;;4947116;28;20540;-66
2023/10/05 11:17:11;;;;;;;7.93;3.67;;;28.70;1.00;;;;;;4948558;29;20480;-66
2023/10/05 11:19:40;;;;;;;7.80;3.50;;;28.70;1.00;;;;;;4949283;29;20461;-66
2023/10/05 11:22:11;;;;;;;10.03;3.10;;;28.70;1.00;;;;;;4949340;28;20473;-65
2023/10/05 11:25:02;;;;;;;8.50;3.50;;;28.60;1.00;;;;;;4949062;28;20482;-65
2023/10/05 11:27:36;;;;;;;10.47;3.40;;;28.40;1.00;;;;;;4944907;28;20471;-66
2023/10/05 11:30:05;;;;;;;7.50;2.87;;;28.40;1.00;;;;;;4950059;28;20481;-66
2023/10/05 11:32:32;;;;;;;6.90;3.30;;;28.40;1.00;;;;;;4950209;28;20605;-64
2023/10/05 11:35:13;;;;;;;7.47;2.60;;;28.50;1.00;;;;;;4950581;28;20490;-64
2023/10/05 11:37:40;;;;;;;6.43;3.57;;;28.50;1.00;;;;;;4953082;28;20841;-63
2023/10/05 11:40:10;;;;;;;9.20;3.53;;;28.40;1.00;;;;;;4951062;28;20458;-63
2023/10/05 11:42:41;;;;;;;10.70;3.50;;;28.10;1.00;;;;;;4947721;28;20459;-63
2023/10/05 11:45:16;;;;;;;9.63;2.80;;;27.90;1.00;;;;;;4951026;28;20490;-63
2023/10/05 11:47:48;;;;;;;7.83;3.43;;;27.60;1.00;;;;;;4951313;28;20576;-63
2023/10/05 11:50:25;;;;;;;6.87;3.10;;;27.50;1.00;;;;;;4949737;28;20573;-62
2023/10/05 11:52:53;;;;;;;10.07;4.00;;;27.30;1.00;;;;;;4953371;28;21008;-63
2023/10/05 11:55:20;;;;;;;7.90;2.80;;;27.00;1.00;;;;;;4949249;28;20515;-63
2023/10/05 11:57:47;;;;;;;7.50;3.33;;;26.80;1.00;;;;;;4956289;28;20474;-63
2023/10/05 12:00:16;;;;;;;9.50;3.23;;;26.60;1.00;;;;;;4952734;28;20469;-63
2023/10/05 12:02:44;;;;;;;6.83;3.50;;;26.50;1.00;;;;;;4951550;28;20470;-63
2023/10/05 12:05:11;;;;;;;9.50;4.30;;;26.30;1.00;;;;;;4951467;28;20546;-63
2023/10/05 12:07:41;;;;;;;12.93;4.20;;;26.10;1.00;;;;;;4950213;28;20474;-63
2023/10/05 12:10:10;;;;;;;7.47;3.93;;;26.00;1.00;;;;;;4950990;28;20490;-64
2023/10/05 12:12:41;;;;;;;6.77;3.67;;;25.80;1.00;;;;;;4952144;28;20528;-64
2023/10/05 12:15:13;;;;;;;8.50;3.37;;;25.50;1.00;;;;;;4953834;28;20522;-64
2023/10/05 12:17:40;;;;;;;6.53;3.40;;;25.30;1.00;;;;;;4971064;28;20462;-64
2023/10/05 12:20:08;;;;;;;6.20;3.47;;;25.10;1.00;;;;;;4963782;28;20489;-64
2023/10/05 12:22:37;;;;;;;10.17;4.90;;;25.00;1.00;;;;;;4948249;28;20466;-63
2023/10/05 12:25:08;;;;;;;9.93;3.43;;;24.90;1.00;;;;;;4950324;28;20497;-63
2023/10/05 12:27:35;;;;;;;8.03;3.53;;;24.80;1.00;;;;;;4950110;28;20900;-63
2023/10/05 12:30:07;;;;;;;8.27;3.80;;;24.60;1.00;;;;;;4943900;28;20489;-63
2023/10/05 12:32:38;;;;;;;8.67;3.53;;;24.50;1.00;;;;;;4944846;28;20475;-63
2023/10/05 12:35:06;;;;;;;10.70;4.60;;;24.20;1.00;;;;;;4951094;28;20485;-63
2023/10/05 12:37:33;;;;;;;8.20;3.10;;;24.00;1.00;;;;;;4949953;28;20459;-63
2023/10/05 12:40:05;;;;;;;9.50;3.70;;;23.70;1.00;;;;;;4946269;28;20980;-63
2023/10/05 12:42:33;;;;;;;6.10;3.20;;;23.60;1.00;;;;;;4944904;28;20468;-62
2023/10/05 12:45:04;;;;;;;16.77;4.30;;;23.50;1.00;;;;;;4947880;28;21006;-63
2023/10/05 12:47:31;;;;;;;9.27;4.43;;;23.20;1.00;;;;;;4948987;28;20927;-62
2023/10/05 12:49:57;;;;;;;8.90;3.60;;;23.00;1.00;;;;;;4950504;28;20579;-63
2023/10/05 12:52:24;;;;;;;12.53;4.10;;;22.90;1.00;;;;;;4951714;28;20986;-63
2023/10/05 12:54:51;;;;;;;8.33;3.07;;;22.80;1.00;;;;;;4952252;28;20498;-63
2023/10/05 12:57:18;;;;;;;9.90;3.97;;;22.60;1.00;;;;;;4956271;28;20470;-63
2023/10/05 12:59:48;;;;;;;10.27;3.27;;;22.50;1.00;;;;;;4944825;28;20463;-65
2023/10/05 13:02:16;;;;;;;7.57;3.17;;;22.40;1.00;;;;;;4946174;28;20478;-65
2023/10/05 13:04:42;;;;;;;7.40;3.60;;;22.30;1.00;;;;;;4950786;28;20531;-65